sensor_id;sensor_type;location;lat;lon;timestamp;pressure;altitude;pressure_sealevel;temperature;humidity
12785;BME280;6456;42.680;23.260;2023-10-19T00:00:31;94753.41;;;8.95;100.00
12785;BME280;6456;42.680;23.260;2023-10-19T00:03:00;94761.09;;;8.90;100.00
12785;BME280;6456;42.680;23.260;2023-10-19T00:05:31;94732.59;;;8.87;100.00
12785;BME280;6456;42.680;23.260;2023-10-19T00:07:58;94738.88;;;8.99;100.00
12785;BME280;6456;42.680;23.260;2023-10-19T00:10:27;94748.19;;;9.09;100.00
12785;BME280;6456;42.680;23.260;2023-10-19T00:12:58;94741.72;;;9.04;100.00
12785;BME280;6456;42.680;23.260;2023-10-19T00:15:30;94739.66;;;8.87;100.00
12785;BME280;6456;42.680;23.260;2023-10-19T00:17:59;94741.28;;;8.94;100.00
12785;BME280;6456;42.680;23.260;2023-10-19T00:20:34;94734.41;;;8.80;100.00
12785;BME280;6456;42.680;23.260;2023-10-19T00:23:15;94684.53;;;8.54;100.00
12785;BME280;6456;42.680;23.260;2023-10-19T00:25:45;94703.72;;;8.61;100.00
12785;BME280;6456;42.680;23.260;2023-10-19T00:28:17;94728.91;;;8.62;100.00
12785;BME280;6456;42.680;23.260;2023-10-19T00:30:44;94716.78;;;8.48;100.00
12785;BME280;6456;42.680;23.260;2023-10-19T00:33:11;94703.22;;;8.38;100.00
12785;BME280;6456;42.680;23.260;2023-10-19T00:35:44;94720.44;;;8.54;100.00
12785;BME280;6456;42.680;23.260;2023-10-19T00:38:16;94718.44;;;8.62;100.00
12785;BME280;6456;42.680;23.260;2023-10-19T00:41:07;94718.03;;;8.65;100.00
12785;BME280;6456;42.680;23.260;2023-10-19T00:43:39;94682.25;;;8.38;100.00
12785;BME280;6456;42.680;23.260;2023-10-19T00:46:10;94712.94;;;8.44;100.00
12785;BME280;6456;42.680;23.260;2023-10-19T00:48:45;94678.28;;;8.08;100.00
12785;BME280;6456;42.680;23.260;2023-10-19T00:51:13;94732.94;;;8.52;100.00
12785;BME280;6456;42.680;23.260;2023-10-19T00:53:54;94712.91;;;8.37;100.00
12785;BME280;6456;42.680;23.260;2023-10-19T00:56:24;94698.38;;;8.28;100.00
12785;BME280;6456;42.680;23.260;2023-10-19T00:58:57;94706.91;;;8.50;100.00
12785;BME280;6456;42.680;23.260;2023-10-19T01:01:28;94684.41;;;8.21;100.00
12785;BME280;6456;42.680;23.260;2023-10-19T01:03:55;94697.53;;;8.28;100.00
12785;BME280;6456;42.680;23.260;2023-10-19T01:06:23;94721.03;;;8.49;100.00
12785;BME280;6456;42.680;23.260;2023-10-19T01:08:50;94715.38;;;8.52;100.00
12785;BME280;6456;42.680;23.260;2023-10-19T01:11:19;94683.03;;;8.32;100.00
12785;BME280;6456;42.680;23.260;2023-10-19T01:13:48;94711.75;;;8.47;100.00
12785;BME280;6456;42.680;23.260;2023-10-19T01:16:17;94715.78;;;8.49;100.00
12785;BME280;6456;42.680;23.260;2023-10-19T01:18:51;94712.09;;;8.37;100.00
12785;BME280;6456;42.680;23.260;2023-10-19T01:21:22;94676.09;;;8.11;100.00
12785;BME280;6456;42.680;23.260;2023-10-19T01:23:54;94724.03;;;8.53;100.00
12785;BME280;6456;42.680;23.260;2023-10-19T01:26:23;94713.72;;;8.45;100.00
12785;BME280;6456;42.680;23.260;2023-10-19T01:28:52;94733.34;;;8.55;100.00
12785;BME280;6456;42.680;23.260;2023-10-19T01:31:25;94726.66;;;8.53;100.00
12785;BME280;6456;42.680;23.260;2023-10-19T01:34:05;94720.63;;;8.52;100.00
12785;BME280;6456;42.680;23.260;2023-10-19T01:36:35;94713.34;;;8.41;100.00
12785;BME280;6456;42.680;23.260;2023-10-19T01:39:08;94729.47;;;8.45;100.00
12785;BME280;6456;42.680;23.260;2023-10-19T01:41:37;94716.94;;;8.40;100.00
12785;BME280;6456;42.680;23.260;2023-10-19T01:44:04;94724.44;;;8.43;100.00
12785;BME280;6456;42.680;23.260;2023-10-19T01:46:31;94728.47;;;8.39;100.00
12785;BME280;6456;42.680;23.260;2023-10-19T01:48:59;94651.19;;;7.88;100.00
12785;BME280;6456;42.680;23.260;2023-10-19T01:51:30;94668.75;;;7.94;100.00
12785;BME280;6456;42.680;23.260;2023-10-19T01:53:58;94705.94;;;8.17;100.00
12785;BME280;6456;42.680;23.260;2023-10-19T01:56:28;94724.75;;;8.27;100.00
12785;BME280;6456;42.680;23.260;2023-10-19T01:58:54;94678.88;;;8.10;100.00
12785;BME280;6456;42.680;23.260;2023-10-19T02:01:22;94710.06;;;8.32;100.00
12785;BME280;6456;42.680;23.260;2023-10-19T02:03:55;94721.81;;;8.43;100.00
12785;BME280;6456;42.680;23.260;2023-10-19T02:06:24;94718.56;;;8.41;100.00
12785;BME280;6456;42.680;23.260;2023-10-19T02:08:55;94716.56;;;8.43;100.00
12785;BME280;6456;42.680;23.260;2023-10-19T02:11:26;94699.72;;;8.24;100.00
12785;BME280;6456;42.680;23.260;2023-10-19T02:13:55;94729.06;;;8.41;100.00
12785;BME280;6456;42.680;23.260;2023-10-19T02:16:25;94729.44;;;8.38;100.00
12785;BME280;6456;42.680;23.260;2023-10-19T02:18:52;94733.69;;;8.39;100.00
12785;BME280;6456;42.680;23.260;2023-10-19T02:21:19;94695.88;;;8.14;100.00
12785;BME280;6456;42.680;23.260;2023-10-19T02:23:47;94729.44;;;8.38;100.00
12785;BME280;6456;42.680;23.260;2023-10-19T02:26:16;94703.13;;;8.18;100.00
12785;BME280;6456;42.680;23.260;2023-10-19T02:28:42;94725.75;;;8.26;100.00
12785;BME280;6456;42.680;23.260;2023-10-19T02:31:11;94707.13;;;8.08;100.00
12785;BME280;6456;42.680;23.260;2023-10-19T02:33:41;94719.44;;;8.14;100.00
12785;BME280;6456;42.680;23.260;2023-10-19T02:36:12;94726.13;;;8.23;100.00
12785;BME280;6456;42.680;23.260;2023-10-19T02:38:41;94716.81;;;8.14;100.00
12785;BME280;6456;42.680;23.260;2023-10-19T02:41:09;94686.06;;;7.88;100.00
12785;BME280;6456;42.680;23.260;2023-10-19T02:43:37;94658.41;;;7.79;100.00
12785;BME280;6456;42.680;23.260;2023-10-19T02:46:04;94718.47;;;8.21;100.00
12785;BME280;6456;42.680;23.260;2023-10-19T02:48:33;94725.53;;;8.21;100.00
12785;BME280;6456;42.680;23.260;2023-10-19T02:50:59;94720.28;;;8.21;100.00
12785;BME280;6456;42.680;23.260;2023-10-19T02:53:37;94711.97;;;8.11;100.00
12785;BME280;6456;42.680;23.260;2023-10-19T02:56:12;94675.75;;;7.87;100.00
12785;BME280;6456;42.680;23.260;2023-10-19T02:58:41;94721.66;;;8.17;100.00
12785;BME280;6456;42.680;23.260;2023-10-19T03:01:14;94712.56;;;8.13;100.00
12785;BME280;6456;42.680;23.260;2023-10-19T03:03:44;94673.09;;;7.73;100.00
12785;BME280;6456;42.680;23.260;2023-10-19T03:06:12;94718.41;;;8.08;100.00
12785;BME280;6456;42.680;23.260;2023-10-19T03:08:38;94721.22;;;8.07;100.00
12785;BME280;6456;42.680;23.260;2023-10-19T03:11:04;94715.97;;;8.07;100.00
12785;BME280;6456;42.680;23.260;2023-10-19T03:13:30;94712.56;;;8.06;100.00
12785;BME280;6456;42.680;23.260;2023-10-19T03:15:59;94714.75;;;8.03;100.00
12785;BME280;6456;42.680;23.260;2023-10-19T03:18:26;94661.00;;;7.72;100.00
12785;BME280;6456;42.680;23.260;2023-10-19T03:20:55;94720.00;;;8.03;100.00
12785;BME280;6456;42.680;23.260;2023-10-19T03:23:21;94673.09;;;7.73;100.00
12785;BME280;6456;42.680;23.260;2023-10-19T03:25:54;94714.94;;;8.01;100.00
12785;BME280;6456;42.680;23.260;2023-10-19T03:28:38;94709.66;;;7.95;100.00
12785;BME280;6456;42.680;23.260;2023-10-19T03:31:06;94719.19;;;8.02;100.00
12785;BME280;6456;42.680;23.260;2023-10-19T03:33:33;94650.84;;;7.56;100.00
12785;BME280;6456;42.680;23.260;2023-10-19T03:36:03;94714.31;;;7.99;100.00
12785;BME280;6456;42.680;23.260;2023-10-19T03:38:31;94643.41;;;7.60;100.00
12785;BME280;6456;42.680;23.260;2023-10-19T03:41:02;94712.34;;;8.01;100.00
12785;BME280;6456;42.680;23.260;2023-10-19T03:43:33;94681.41;;;7.84;100.00
12785;BME280;6456;42.680;23.260;2023-10-19T03:46:02;94688.09;;;7.93;100.00
12785;BME280;6456;42.680;23.260;2023-10-19T03:48:39;94667.28;;;7.85;100.00
12785;BME280;6456;42.680;23.260;2023-10-19T03:51:08;94689.94;;;7.99;100.00
12785;BME280;6456;42.680;23.260;2023-10-19T03:53:38;94688.94;;;8.00;100.00
12785;BME280;6456;42.680;23.260;2023-10-19T03:56:09;94689.31;;;7.97;100.00
12785;BME280;6456;42.680;23.260;2023-10-19T03:58:36;94693.75;;;7.96;100.00
12785;BME280;6456;42.680;23.260;2023-10-19T04:01:04;94691.91;;;7.90;100.00
12785;BME280;6456;42.680;23.260;2023-10-19T04:03:32;94703.34;;;7.83;100.00
12785;BME280;6456;42.680;23.260;2023-10-19T04:06:02;94646.75;;;7.47;100.00
12785;BME280;6456;42.680;23.260;2023-10-19T04:08:31;94652.78;;;7.41;100.00
12785;BME280;6456;42.680;23.260;2023-10-19T04:11:03;94643.09;;;7.42;100.00
12785;BME280;6456;42.680;23.260;2023-10-19T04:13:37;94691.22;;;7.75;100.00
12785;BME280;6456;42.680;23.260;2023-10-19T04:16:04;94710.97;;;7.78;100.00
12785;BME280;6456;42.680;23.260;2023-10-19T04:18:34;94664.50;;;7.52;100.00
12785;BME280;6456;42.680;23.260;2023-10-19T04:21:05;94629.13;;;7.28;100.00
12785;BME280;6456;42.680;23.260;2023-10-19T04:23:33;94696.66;;;7.73;100.00
12785;BME280;6456;42.680;23.260;2023-10-19T04:26:02;94650.69;;;7.37;100.00
12785;BME280;6456;42.680;23.260;2023-10-19T04:28:36;94696.06;;;7.71;100.00
12785;BME280;6456;42.680;23.260;2023-10-19T04:31:11;94693.44;;;7.71;100.00
12785;BME280;6456;42.680;23.260;2023-10-19T04:33:40;94703.47;;;7.68;100.00
12785;BME280;6456;42.680;23.260;2023-10-19T04:36:12;94696.22;;;7.70;100.00
12785;BME280;6456;42.680;23.260;2023-10-19T04:38:41;94652.00;;;7.47;100.00
12785;BME280;6456;42.680;23.260;2023-10-19T04:41:10;94693.81;;;7.68;100.00
12785;BME280;6456;42.680;23.260;2023-10-19T04:43:38;94683.56;;;7.73;100.00
12785;BME280;6456;42.680;23.260;2023-10-19T04:46:07;94674.06;;;7.66;100.00
12785;BME280;6456;42.680;23.260;2023-10-19T04:48:37;94669.88;;;7.71;100.00
12785;BME280;6456;42.680;23.260;2023-10-19T04:51:05;94672.66;;;7.70;100.00
12785;BME280;6456;42.680;23.260;2023-10-19T04:53:32;94669.88;;;7.71;100.00
12785;BME280;6456;42.680;23.260;2023-10-19T04:56:02;94680.00;;;7.81;100.00
12785;BME280;6456;42.680;23.260;2023-10-19T04:58:29;94668.84;;;7.72;100.00
12785;BME280;6456;42.680;23.260;2023-10-19T05:00:56;94684.41;;;7.81;100.00
12785;BME280;6456;42.680;23.260;2023-10-19T05:03:24;94604.41;;;7.37;100.00
12785;BME280;6456;42.680;23.260;2023-10-19T05:05:51;94612.84;;;7.33;100.00
12785;BME280;6456;42.680;23.260;2023-10-19T05:08:18;94657.09;;;7.62;100.00
12785;BME280;6456;42.680;23.260;2023-10-19T05:10:49;94683.56;;;7.73;100.00
12785;BME280;6456;42.680;23.260;2023-10-19T05:13:17;94689.66;;;7.81;100.00
12785;BME280;6456;42.680;23.260;2023-10-19T05:15:44;94683.84;;;7.92;100.00
12785;BME280;6456;42.680;23.260;2023-10-19T05:18:11;94645.28;;;7.72;100.00
12785;BME280;6456;42.680;23.260;2023-10-19T05:20:39;94669.97;;;7.98;100.00
12785;BME280;6456;42.680;23.260;2023-10-19T05:23:07;94678.50;;;8.13;100.00
12785;BME280;6456;42.680;23.260;2023-10-19T05:25:34;94678.94;;;8.23;100.00
12785;BME280;6456;42.680;23.260;2023-10-19T05:28:03;94679.44;;;8.39;100.00
12785;BME280;6456;42.680;23.260;2023-10-19T05:30:32;94632.53;;;8.10;100.00
12785;BME280;6456;42.680;23.260;2023-10-19T05:32:59;94615.09;;;7.83;100.00
12785;BME280;6456;42.680;23.260;2023-10-19T05:35:27;94637.88;;;7.89;100.00
12785;BME280;6456;42.680;23.260;2023-10-19T05:37:56;94646.34;;;7.85;100.00
12785;BME280;6456;42.680;23.260;2023-10-19T05:40:23;94697.88;;;8.18;100.00
12785;BME280;6456;42.680;23.260;2023-10-19T05:42:55;94636.66;;;7.79;100.00
12785;BME280;6456;42.680;23.260;2023-10-19T05:45:23;94701.97;;;8.27;100.00
12785;BME280;6456;42.680;23.260;2023-10-19T05:47:51;94711.31;;;8.43;100.00
12785;BME280;6456;42.680;23.260;2023-10-19T05:50:18;94670.94;;;8.31;100.00
12785;BME280;6456;42.680;23.260;2023-10-19T05:52:46;94662.91;;;8.39;100.00
12785;BME280;6456;42.680;23.260;2023-10-19T05:55:14;94701.50;;;8.78;100.00
12785;BME280;6456;42.680;23.260;2023-10-19T05:57:41;94701.53;;;8.91;100.00
12785;BME280;6456;42.680;23.260;2023-10-19T06:00:09;94673.06;;;8.81;100.00
12785;BME280;6456;42.680;23.260;2023-10-19T06:02:41;94615.13;;;8.63;100.00
12785;BME280;6456;42.680;23.260;2023-10-19T06:05:12;94714.69;;;9.30;100.00
12785;BME280;6456;42.680;23.260;2023-10-19T06:07:43;94666.22;;;9.00;100.00
12785;BME280;6456;42.680;23.260;2023-10-19T06:10:12;94662.59;;;9.08;100.00
12785;BME280;6456;42.680;23.260;2023-10-19T06:12:42;94704.19;;;9.37;100.00
12785;BME280;6456;42.680;23.260;2023-10-19T06:15:10;94705.81;;;9.44;100.00
12785;BME280;6456;42.680;23.260;2023-10-19T06:17:38;94660.16;;;9.26;100.00
12785;BME280;6456;42.680;23.260;2023-10-19T06:20:07;94707.78;;;9.62;100.00
12785;BME280;6456;42.680;23.260;2023-10-19T06:22:46;94691.63;;;9.65;100.00
12785;BME280;6456;42.680;23.260;2023-10-19T06:25:16;94686.16;;;9.60;100.00
12785;BME280;6456;42.680;23.260;2023-10-19T06:27:45;94662.97;;;9.44;100.00
12785;BME280;6456;42.680;23.260;2023-10-19T06:30:12;94640.34;;;9.30;100.00
12785;BME280;6456;42.680;23.260;2023-10-19T06:32:45;94704.34;;;9.81;100.00
12785;BME280;6456;42.680;23.260;2023-10-19T06:35:12;94682.75;;;9.66;100.00
12785;BME280;6456;42.680;23.260;2023-10-19T06:37:39;94694.81;;;9.80;100.00
12785;BME280;6456;42.680;23.260;2023-10-19T06:40:08;94707.34;;;9.91;100.00
12785;BME280;6456;42.680;23.260;2023-10-19T06:42:37;94718.25;;;10.01;100.00
12785;BME280;6456;42.680;23.260;2023-10-19T06:45:05;94681.06;;;9.85;100.00
12785;BME280;6456;42.680;23.260;2023-10-19T06:47:32;94618.06;;;9.65;100.00
12785;BME280;6456;42.680;23.260;2023-10-19T06:50:04;94655.16;;;9.95;100.00
12785;BME280;6456;42.680;23.260;2023-10-19T06:52:33;94672.06;;;10.25;100.00
12785;BME280;6456;42.680;23.260;2023-10-19T06:55:01;94695.91;;;10.37;100.00
12785;BME280;6456;42.680;23.260;2023-10-19T06:57:31;94668.22;;;10.27;100.00
12785;BME280;6456;42.680;23.260;2023-10-19T06:59:58;94655.91;;;10.21;100.00
12785;BME280;6456;42.680;23.260;2023-10-19T07:02:32;94675.50;;;10.32;100.00
12785;BME280;6456;42.680;23.260;2023-10-19T07:04:59;94689.13;;;10.54;100.00
12785;BME280;6456;42.680;23.260;2023-10-19T07:07:26;94701.25;;;10.55;100.00
12785;BME280;6456;42.680;23.260;2023-10-19T07:09:53;94674.91;;;10.23;100.00
12785;BME280;6456;42.680;23.260;2023-10-19T07:12:20;94679.69;;;10.40;100.00
12785;BME280;6456;42.680;23.260;2023-10-19T07:14:50;94697.72;;;10.74;100.00
12785;BME280;6456;42.680;23.260;2023-10-19T07:17:16;94707.78;;;10.83;100.00
12785;BME280;6456;42.680;23.260;2023-10-19T07:19:43;94687.03;;;10.69;100.00
12785;BME280;6456;42.680;23.260;2023-10-19T07:22:14;94700.91;;;10.82;100.00
12785;BME280;6456;42.680;23.260;2023-10-19T07:24:42;94692.75;;;10.97;100.00
12785;BME280;6456;42.680;23.260;2023-10-19T07:27:09;94696.47;;;11.14;100.00
12785;BME280;6456;42.680;23.260;2023-10-19T07:29:43;94689.72;;;11.18;100.00
12785;BME280;6456;42.680;23.260;2023-10-19T07:32:12;94692.19;;;11.13;100.00
12785;BME280;6456;42.680;23.260;2023-10-19T07:34:38;94695.09;;;11.05;100.00
12785;BME280;6456;42.680;23.260;2023-10-19T07:37:05;94679.75;;;11.02;100.00
12785;BME280;6456;42.680;23.260;2023-10-19T07:39:50;94704.69;;;11.24;100.00
12785;BME280;6456;42.680;23.260;2023-10-19T07:42:17;94652.22;;;10.98;100.00
12785;BME280;6456;42.680;23.260;2023-10-19T07:44:45;94698.69;;;11.17;100.00
12785;BME280;6456;42.680;23.260;2023-10-19T07:47:13;94668.59;;;11.00;100.00
12785;BME280;6456;42.680;23.260;2023-10-19T07:49:40;94679.69;;;11.09;100.00
12785;BME280;6456;42.680;23.260;2023-10-19T07:52:07;94682.25;;;11.15;100.00
12785;BME280;6456;42.680;23.260;2023-10-19T07:54:36;94717.91;;;11.42;100.00
12785;BME280;6456;42.680;23.260;2023-10-19T07:57:03;94683.06;;;11.16;100.00
12785;BME280;6456;42.680;23.260;2023-10-19T07:59:31;94708.06;;;11.31;100.00
12785;BME280;6456;42.680;23.260;2023-10-19T08:01:58;94702.81;;;11.31;100.00
12785;BME280;6456;42.680;23.260;2023-10-19T08:04:29;94708.56;;;11.46;100.00
12785;BME280;6456;42.680;23.260;2023-10-19T08:06:56;94708.56;;;11.46;100.00
12785;BME280;6456;42.680;23.260;2023-10-19T08:09:23;94711.06;;;11.35;100.00
12785;BME280;6456;42.680;23.260;2023-10-19T08:11:55;94670.06;;;10.96;100.00
12785;BME280;6456;42.680;23.260;2023-10-19T08:14:23;94657.91;;;10.95;100.00
12785;BME280;6456;42.680;23.260;2023-10-19T08:16:50;94693.88;;;11.32;100.00
12785;BME280;6456;42.680;23.260;2023-10-19T08:19:18;94701.94;;;11.37;100.00
12785;BME280;6456;42.680;23.260;2023-10-19T08:21:47;94689.63;;;11.31;100.00
12785;BME280;6456;42.680;23.260;2023-10-19T08:24:14;94677.47;;;11.30;100.00
12785;BME280;6456;42.680;23.260;2023-10-19T08:26:43;94703.63;;;11.56;100.00
12785;BME280;6456;42.680;23.260;2023-10-19T08:29:10;94690.88;;;11.53;100.00
12785;BME280;6456;42.680;23.260;2023-10-19T08:31:39;94664.34;;;11.48;100.00
12785;BME280;6456;42.680;23.260;2023-10-19T08:34:06;94692.50;;;11.79;100.00
12785;BME280;6456;42.680;23.260;2023-10-19T08:36:35;94695.19;;;11.91;100.00
12785;BME280;6456;42.680;23.260;2023-10-19T08:39:04;94649.41;;;11.67;100.00
12785;BME280;6456;42.680;23.260;2023-10-19T08:41:32;94697.03;;;12.08;100.00
12785;BME280;6456;42.680;23.260;2023-10-19T08:44:00;94698.16;;;12.19;100.00
12785;BME280;6456;42.680;23.260;2023-10-19T08:46:28;94665.25;;;12.03;100.00
12785;BME280;6456;42.680;23.260;2023-10-19T08:48:55;94633.09;;;11.95;100.00
12785;BME280;6456;42.680;23.260;2023-10-19T08:51:25;94685.03;;;12.31;100.00
12785;BME280;6456;42.680;23.260;2023-10-19T08:53:54;94701.06;;;12.47;100.00
12785;BME280;6456;42.680;23.260;2023-10-19T08:56:23;94668.38;;;12.30;100.00
12785;BME280;6456;42.680;23.260;2023-10-19T08:58:51;94702.06;;;12.64;100.00
12785;BME280;6456;42.680;23.260;2023-10-19T09:01:18;94710.47;;;12.73;100.00
12785;BME280;6456;42.680;23.260;2023-10-19T09:03:50;94692.31;;;12.65;100.00
12785;BME280;6456;42.680;23.260;2023-10-19T09:06:17;94677.75;;;12.62;100.00
12785;BME280;6456;42.680;23.260;2023-10-19T09:08:46;94662.16;;;12.72;100.00
12785;BME280;6456;42.680;23.260;2023-10-19T09:11:14;94656.97;;;12.66;100.00
12785;BME280;6456;42.680;23.260;2023-10-19T09:13:47;94621.13;;;12.58;100.00
12785;BME280;6456;42.680;23.260;2023-10-19T09:16:15;94665.81;;;13.01;100.00
12785;BME280;6456;42.680;23.260;2023-10-19T09:18:43;94612.38;;;12.88;100.00
12785;BME280;6456;42.680;23.260;2023-10-19T09:21:10;94658.66;;;13.43;100.00
12785;BME280;6456;42.680;23.260;2023-10-19T09:23:38;94603.72;;;13.22;100.00
12785;BME280;6456;42.680;23.260;2023-10-19T09:26:07;94598.22;;;13.35;100.00
12785;BME280;6456;42.680;23.260;2023-10-19T09:28:35;94657.66;;;13.67;100.00
12785;BME280;6456;42.680;23.260;2023-10-19T09:31:05;94625.81;;;13.62;100.00
12785;BME280;6456;42.680;23.260;2023-10-19T09:33:35;94646.38;;;13.95;100.00
12785;BME280;6456;42.680;23.260;2023-10-19T09:36:03;94636.22;;;14.03;100.00
12785;BME280;6456;42.680;23.260;2023-10-19T09:38:38;94636.88;;;14.22;100.00
12785;BME280;6456;42.680;23.260;2023-10-19T09:41:08;94637.53;;;14.41;100.00
12785;BME280;6456;42.680;23.260;2023-10-19T09:43:43;94594.84;;;14.26;100.00
12785;BME280;6456;42.680;23.260;2023-10-19T09:46:15;94614.44;;;14.64;100.00
12785;BME280;6456;42.680;23.260;2023-10-19T09:48:47;94600.38;;;14.64;100.00
12785;BME280;6456;42.680;23.260;2023-10-19T09:51:14;94598.38;;;14.71;100.00
12785;BME280;6456;42.680;23.260;2023-10-19T09:53:45;94638.56;;;14.96;100.00
12785;BME280;6456;42.680;23.260;2023-10-19T09:56:19;94610.28;;;14.85;100.00
12785;BME280;6456;42.680;23.260;2023-10-19T09:58:49;94587.19;;;14.97;100.00
12785;BME280;6456;42.680;23.260;2023-10-19T10:01:19;94616.66;;;15.17;100.00
12785;BME280;6456;42.680;23.260;2023-10-19T10:03:48;94608.47;;;15.02;100.00
12785;BME280;6456;42.680;23.260;2023-10-19T10:06:17;94591.34;;;14.93;100.00
12785;BME280;6456;42.680;23.260;2023-10-19T10:08:53;94575.34;;;14.88;100.00
12785;BME280;6456;42.680;23.260;2023-10-19T10:11:22;94619.97;;;15.24;100.00
12785;BME280;6456;42.680;23.260;2023-10-19T10:13:50;94565.34;;;15.07;100.00
12785;BME280;6456;42.680;23.260;2023-10-19T10:16:21;94597.47;;;15.27;100.00
12785;BME280;6456;42.680;23.260;2023-10-19T10:18:48;94547.44;;;14.97;100.00
12785;BME280;6456;42.680;23.260;2023-10-19T10:21:18;94600.44;;;15.30;100.00
12785;BME280;6456;42.680;23.260;2023-10-19T10:23:47;94601.09;;;15.37;100.00
12785;BME280;6456;42.680;23.260;2023-10-19T10:26:16;94531.44;;;15.09;100.00
12785;BME280;6456;42.680;23.260;2023-10-19T10:28:46;94586.13;;;15.31;100.00
12785;BME280;6456;42.680;23.260;2023-10-19T10:31:18;94570.63;;;15.23;100.00
12785;BME280;6456;42.680;23.260;2023-10-19T10:33:48;94571.19;;;15.42;100.00
12785;BME280;6456;42.680;23.260;2023-10-19T10:36:17;94567.09;;;15.34;100.00
12785;BME280;6456;42.680;23.260;2023-10-19T10:38:46;94526.78;;;15.16;100.00
12785;BME280;6456;42.680;23.260;2023-10-19T10:41:19;94506.88;;;15.13;100.00
12785;BME280;6456;42.680;23.260;2023-10-19T10:43:54;94551.69;;;15.48;100.00
12785;BME280;6456;42.680;23.260;2023-10-19T10:46:23;94517.47;;;15.30;100.00
12785;BME280;6456;42.680;23.260;2023-10-19T10:48:52;94522.91;;;15.40;100.00
12785;BME280;6456;42.680;23.260;2023-10-19T10:51:20;94537.91;;;15.51;100.00
12785;BME280;6456;42.680;23.260;2023-10-19T10:53:49;94525.97;;;15.49;100.00
12785;BME280;6456;42.680;23.260;2023-10-19T10:56:16;94428.59;;;15.06;100.00
12785;BME280;6456;42.680;23.260;2023-10-19T10:58:43;94468.44;;;15.32;100.00
12785;BME280;6456;42.680;23.260;2023-10-19T11:01:10;94466.41;;;15.39;100.00
12785;BME280;6456;42.680;23.260;2023-10-19T11:03:38;94513.34;;;15.77;100.00
12785;BME280;6456;42.680;23.260;2023-10-19T11:06:07;94496.25;;;15.90;100.00
12785;BME280;6456;42.680;23.260;2023-10-19T11:08:35;94490.25;;;15.99;100.00
12785;BME280;6456;42.680;23.260;2023-10-19T11:11:04;94493.16;;;15.98;100.00
12785;BME280;6456;42.680;23.260;2023-10-19T11:13:31;94474.34;;;15.99;100.00
12785;BME280;6456;42.680;23.260;2023-10-19T11:16:02;94437.28;;;15.83;100.00
12785;BME280;6456;42.680;23.260;2023-10-19T11:18:32;94480.06;;;16.13;100.00
12785;BME280;6456;42.680;23.260;2023-10-19T11:21:01;94452.72;;;16.13;100.00
12785;BME280;6456;42.680;23.260;2023-10-19T11:23:38;94440.09;;;16.25;100.00
12785;BME280;6456;42.680;23.260;2023-10-19T11:26:06;94469.84;;;16.53;100.00
12785;BME280;6456;42.680;23.260;2023-10-19T11:28:34;94447.47;;;16.49;100.00
12785;BME280;6456;42.680;23.260;2023-10-19T11:31:14;94446.50;;;16.55;100.00
12785;BME280;6456;42.680;23.260;2023-10-19T11:33:42;94431.88;;;16.53;100.00
12785;BME280;6456;42.680;23.260;2023-10-19T11:36:09;94457.56;;;16.79;100.00
12785;BME280;6456;42.680;23.260;2023-10-19T11:38:40;94423.19;;;16.62;100.00
12785;BME280;6456;42.680;23.260;2023-10-19T11:41:07;94414.19;;;16.68;100.00
12785;BME280;6456;42.680;23.260;2023-10-19T11:43:34;94449.50;;;17.01;100.00
12785;BME280;6456;42.680;23.260;2023-10-19T11:46:02;94428.47;;;16.99;100.00
12785;BME280;6456;42.680;23.260;2023-10-19T11:48:31;94450.63;;;17.10;100.00
12785;BME280;6456;42.680;23.260;2023-10-19T11:51:02;94440.00;;;17.10;100.00
12785;BME280;6456;42.680;23.260;2023-10-19T11:53:35;94419.78;;;17.09;100.00
12785;BME280;6456;42.680;23.260;2023-10-19T11:56:05;94425.91;;;17.14;100.00
12785;BME280;6456;42.680;23.260;2023-10-19T11:58:36;94440.63;;;17.27;100.00
12785;BME280;6456;42.680;23.260;2023-10-19T12:01:06;94414.50;;;17.19;100.00
12785;BME280;6456;42.680;23.260;2023-10-19T12:03:34;94438.00;;;17.37;100.00
12785;BME280;6456;42.680;23.260;2023-10-19T12:06:03;94385.78;;;17.11;100.00
12785;BME280;6456;42.680;23.260;2023-10-19T12:08:31;94422.09;;;17.47;100.00
12785;BME280;6456;42.680;23.260;2023-10-19T12:10:59;94418.38;;;17.43;100.00
12785;BME280;6456;42.680;23.260;2023-10-19T12:13:31;94428.50;;;17.51;100.00
12785;BME280;6456;42.680;23.260;2023-10-19T12:15:58;94416.31;;;17.55;100.00
12785;BME280;6456;42.680;23.260;2023-10-19T12:18:26;94420.06;;;17.59;100.00
12785;BME280;6456;42.680;23.260;2023-10-19T12:20:59;94402.50;;;17.58;100.00
12785;BME280;6456;42.680;23.260;2023-10-19T12:23:33;94393.63;;;17.43;100.00
12785;BME280;6456;42.680;23.260;2023-10-19T12:26:04;94409.97;;;17.66;100.00
12785;BME280;6456;42.680;23.260;2023-10-19T12:28:38;94372.38;;;17.48;100.00
12785;BME280;6456;42.680;23.260;2023-10-19T12:31:05;94407.06;;;17.68;100.00
12785;BME280;6456;42.680;23.260;2023-10-19T12:33:34;94364.91;;;17.45;100.00
12785;BME280;6456;42.680;23.260;2023-10-19T12:36:01;94402.84;;;17.82;100.00
12785;BME280;6456;42.680;23.260;2023-10-19T12:38:47;94382.63;;;17.81;100.00
12785;BME280;6456;42.680;23.260;2023-10-19T12:41:14;94362.06;;;17.66;100.00
12785;BME280;6456;42.680;23.260;2023-10-19T12:43:44;94372.75;;;17.76;99.92
12785;BME280;6456;42.680;23.260;2023-10-19T12:46:11;94343.72;;;17.65;100.00
12785;BME280;6456;42.680;23.260;2023-10-19T12:48:39;94374.38;;;17.82;99.08
12785;BME280;6456;42.680;23.260;2023-10-19T12:51:06;94350.13;;;17.79;99.27
12785;BME280;6456;42.680;23.260;2023-10-19T12:53:35;94350.41;;;17.87;100.00
12785;BME280;6456;42.680;23.260;2023-10-19T12:56:04;94335.50;;;17.81;98.03
12785;BME280;6456;42.680;23.260;2023-10-19T12:58:31;94386.66;;;18.14;98.17
12785;BME280;6456;42.680;23.260;2023-10-19T13:01:00;94384.78;;;18.09;97.85
12785;BME280;6456;42.680;23.260;2023-10-19T13:03:29;94376.00;;;18.14;97.88
12785;BME280;6456;42.680;23.260;2023-10-19T13:05:58;94359.25;;;18.13;99.97